Time;durP1;ratioP1;P1;durP2;ratioP2;P2;SDS_P1;SDS_P2;PMS_P1;PMS_P2;Temp;Humidity;BMP_temperature;BMP_pressure;BME280_temperature;BME280_humidity;BME280_pressure;Samples;Min_cycle;Max_cycle;Signal;HPM_P1;HPM_P2
2023/08/16 00:00:54;;;;;;;2.20;1.80;;;;;;;29.37;48.24;98842.91;2072432;28;20061;-52
2023/08/16 00:01:55;;;;;;;2.60;2.10;;;;;;;29.39;48.26;98837.97;2072309;28;20049;-53
2023/08/16 00:02:57;;;;;;;4.07;1.83;;;;;;;29.39;47.92;98846.19;2075650;28;20065;-53
2023/08/16 00:04:00;;;;;;;2.30;2.00;;;;;;;29.41;48.05;98841.28;2074257;28;20052;-53
2023/08/16 00:05:02;;;;;;;2.40;2.20;;;;;;;29.40;47.85;98847.84;2073149;28;20045;-49
2023/08/16 00:06:10;;;;;;;2.00;1.80;;;;;;;29.42;48.32;98844.81;2074086;28;20083;-50
2023/08/16 00:07:11;;;;;;;2.28;1.58;;;;;;;29.40;48.14;98837.72;2079539;28;20405;-51
2023/08/16 00:08:13;;;;;;;2.60;2.05;;;;;;;29.40;48.28;98845.91;2076257;28;20404;-54
2023/08/16 00:09:16;;;;;;;2.35;1.90;;;;;;;29.39;48.36;98840.72;2072511;28;20516;-54
2023/08/16 00:10:17;;;;;;;2.55;2.30;;;;;;;29.40;48.29;98840.44;2073543;28;20050;-54
2023/08/16 00:11:18;;;;;;;3.15;2.55;;;;;;;29.43;48.04;98843.75;2076490;28;20049;-52
2023/08/16 00:12:20;;;;;;;3.33;2.42;;;;;;;29.42;47.99;98844.81;2075958;28;20065;-50
2023/08/16 00:13:21;;;;;;;2.13;1.98;;;;;;;29.42;48.10;98844.81;2077800;28;20046;-50
2023/08/16 00:14:22;;;;;;;2.22;2.03;;;;;;;29.40;48.20;98853.31;2075472;28;20056;-53
2023/08/16 00:15:26;;;;;;;2.05;1.88;;;;;;;29.42;48.26;98848.41;2082896;28;20049;-50
2023/08/16 00:16:27;;;;;;;2.33;2.08;;;;;;;29.40;48.28;98842.38;2084829;28;20080;-53
2023/08/16 00:17:29;;;;;;;2.22;2.03;;;;;;;29.40;48.11;98850.56;2086032;28;20037;-50
2023/08/16 00:18:30;;;;;;;2.00;1.80;;;;;;;29.40;48.19;98845.09;2082761;28;20063;-50
2023/08/16 00:19:33;;;;;;;2.25;1.73;;;;;;;29.41;48.23;98849.47;2081431;28;20318;-54
2023/08/16 00:20:34;;;;;;;3.40;2.03;;;;;;;29.39;48.06;98846.19;2082351;28;20080;-54
2023/08/16 00:21:35;;;;;;;1.70;1.60;;;;;;;29.40;48.06;98847.84;2084803;28;20484;-53
2023/08/16 00:22:37;;;;;;;2.60;2.40;;;;;;;29.40;48.28;98843.19;2082792;28;20404;-53
2023/08/16 00:23:38;;;;;;;1.92;1.83;;;;;;;29.39;47.92;98847.03;2082860;28;20041;-51
2023/08/16 00:24:39;;;;;;;2.17;1.90;;;;;;;29.39;47.98;98844.28;2081427;28;20049;-54
2023/08/16 00:25:41;;;;;;;1.77;1.67;;;;;;;29.44;47.98;98848.91;2083064;28;20045;-49
2023/08/16 00:26:42;;;;;;;3.33;2.20;;;;;;;29.43;48.02;98841.00;2082283;28;21542;-50
2023/08/16 00:27:43;;;;;;;2.50;2.30;;;;;;;29.43;47.92;98841.81;2082678;28;20727;-54
2023/08/16 00:28:45;;;;;;;1.92;1.77;;;;;;;29.42;48.02;98840.19;2080846;28;20048;-49
2023/08/16 00:29:47;;;;;;;2.03;1.83;;;;;;;29.40;47.88;98842.38;2074754;28;20076;-54
2023/08/16 00:30:51;;;;;;;1.98;1.75;;;;;;;29.41;47.87;98841.28;2074995;28;20615;-53
2023/08/16 00:31:53;;;;;;;2.35;2.00;;;;;;;29.39;48.12;98835.25;2074615;28;20077;-53
2023/08/16 00:32:55;;;;;;;2.08;1.80;;;;;;;29.39;47.86;98844.28;2077415;28;20041;-52
2023/08/16 00:33:57;;;;;;;2.55;2.25;;;;;;;29.42;48.01;98842.94;2075255;28;20507;-54
2023/08/16 00:34:59;;;;;;;2.15;1.95;;;;;;;29.40;48.08;98845.09;2073025;28;20038;-53
2023/08/16 00:36:01;;;;;;;2.08;1.83;;;;;;;29.39;48.28;98841.56;2078911;28;20048;-53
2023/08/16 00:37:01;;;;;;;2.42;1.67;;;;;;;29.38;48.06;98847.28;2077778;28;20551;-53
2023/08/16 00:38:03;;;;;;;2.10;1.90;;;;;;;29.37;48.23;98848.38;2075323;28;20041;-50
2023/08/16 00:39:04;;;;;;;1.75;1.65;;;;;;;29.38;47.88;98847.28;2073572;28;20056;-50
2023/08/16 00:40:08;;;;;;;2.50;2.15;;;;;;;29.39;48.03;98847.03;2072982;28;20412;-54
2023/08/16 00:41:09;;;;;;;2.00;1.80;;;;;;;29.37;48.28;98851.09;2073247;28;20049;-54
2023/08/16 00:42:11;;;;;;;2.25;1.92;;;;;;;29.39;47.99;98846.19;2074062;28;21048;-52
2023/08/16 00:43:12;;;;;;;2.08;1.90;;;;;;;29.38;48.07;98848.09;2076266;28;20537;-51
2023/08/16 00:44:14;;;;;;;2.30;1.75;;;;;;;29.39;47.92;98848.91;2072781;28;20046;-52
2023/08/16 00:45:15;;;;;;;2.00;1.88;;;;;;;29.37;48.08;98848.38;2073418;28;20049;-50
2023/08/16 00:46:19;;;;;;;2.50;2.20;;;;;;;29.37;48.26;98842.91;2074140;28;20528;-52
2023/08/16 00:47:20;;;;;;;2.28;1.77;;;;;;;29.38;48.09;98850.81;2075258;28;20144;-50
2023/08/16 00:48:21;;;;;;;1.90;1.77;;;;;;;29.39;48.12;98843.44;2073857;28;20196;-52
2023/08/16 00:49:22;;;;;;;2.60;1.98;;;;;;;29.39;47.79;98848.91;2074702;28;20050;-55
2023/08/16 00:50:26;;;;;;;2.90;2.47;;;;;;;29.40;47.99;98847.84;2074740;28;20045;-53
2023/08/16 00:51:27;;;;;;;2.88;2.65;;;;;;;29.38;48.04;98848.09;2075602;28;20064;-55
2023/08/16 00:52:30;;;;;;;2.42;2.00;;;;;;;29.38;47.92;98850.00;2074968;28;20416;-50
2023/08/16 00:53:31;;;;;;;2.08;1.88;;;;;;;29.37;48.01;98848.38;2074910;28;20056;-52
2023/08/16 00:54:33;;;;;;;2.03;1.83;;;;;;;29.37;48.07;98853.84;2084981;28;20476;-50
2023/08/16 00:55:34;;;;;;;2.20;2.00;;;;;;;29.37;48.07;98849.19;2084326;28;20096;-55
2023/08/16 00:56:36;;;;;;;2.58;2.25;;;;;;;29.40;47.92;98850.56;2082077;28;20129;-54
2023/08/16 00:57:37;;;;;;;2.83;2.38;;;;;;;29.38;48.21;98853.56;2083374;28;20091;-52
2023/08/16 00:58:39;;;;;;;2.50;2.08;;;;;;;29.39;48.15;98843.44;2082304;28;20044;-50
2023/08/16 00:59:40;;;;;;;2.55;2.00;;;;;;;29.39;47.79;98841.56;2082094;28;20535;-53
2023/08/16 01:00:42;;;;;;;1.92;1.70;;;;;;;29.38;48.14;98847.28;2084040;28;20056;-53
2023/08/16 01:01:45;;;;;;;2.22;2.03;;;;;;;29.39;48.19;98847.03;2085259;28;20084;-51
2023/08/16 01:02:47;;;;;;;2.13;1.92;;;;;;;29.41;47.73;98844.00;2081156;28;20084;-51
2023/08/16 01:03:48;;;;;;;2.08;1.88;;;;;;;29.39;47.85;98840.72;2082601;28;20068;-50
2023/08/16 01:04:50;;;;;;;2.20;2.00;;;;;;;29.39;48.21;98841.56;2082753;28;20498;-54
2023/08/16 01:05:53;;;;;;;1.83;1.73;;;;;;;29.36;48.01;98846.72;2081509;28;20072;-53
2023/08/16 01:06:57;;;;;;;2.95;2.45;;;;;;;29.37;48.24;98837.44;2083768;28;20534;-54
2023/08/16 01:07:59;;;;;;;2.17;1.98;;;;;;;29.36;48.27;98836.63;2084842;28;20053;-51
2023/08/16 01:09:01;;;;;;;2.45;1.83;;;;;;;29.36;48.21;98841.25;2083020;28;20477;-52
2023/08/16 01:10:03;;;;;;;1.85;1.70;;;;;;;29.36;48.07;98836.63;2083411;28;20044;-53
2023/08/16 01:11:11;;;;;;;3.05;1.77;;;;;;;29.40;48.13;98836.91;2081994;28;20052;-54
2023/08/16 01:12:18;;;;;;;2.47;2.28;;;;;;;29.38;48.07;98828.97;2083134;28;20114;-53
2023/08/16 01:13:25;;;;;;;1.50;1.40;;;;;;;29.38;47.98;98836.34;2083447;28;20439;-53
2023/08/16 01:14:41;;;;;;;3.35;1.70;;;;;;;29.36;48.27;98841.25;2079895;28;20044;-54
2023/08/16 01:15:48;;;;;;;2.00;1.90;;;;;;;29.34;48.25;98836.06;2081114;28;20063;-52
2023/08/16 01:16:51;;;;;;;3.22;2.20;;;;;;;29.34;48.07;98829.78;2082167;28;20072;-50
2023/08/16 01:17:54;;;;;;;2.25;2.05;;;;;;;29.34;48.11;98832.53;2084033;28;20042;-52
2023/08/16 01:18:57;;;;;;;2.60;1.90;;;;;;;29.36;48.27;98824.84;2083611;28;20575;-52
2023/08/16 01:20:03;;;;;;;2.88;2.38;;;;;;;29.36;47.89;98830.31;2083011;28;20128;-55
2023/08/16 01:21:08;;;;;;;2.25;2.05;;;;;;;29.37;48.03;98815.59;2083369;28;20389;-54
2023/08/16 01:22:20;;;;;;;2.15;1.95;;;;;;;29.34;48.07;98825.16;2080518;28;20499;-51
2023/08/16 01:23:30;;;;;;;2.00;1.90;;;;;;;29.34;48.22;98821.59;2084280;28;20076;-51
2023/08/16 01:24:39;;;;;;;3.00;2.33;;;;;;;29.34;48.32;98821.59;2082809;28;20041;-50
2023/08/16 01:25:55;;;;;;;2.85;2.63;;;;;;;29.33;48.14;98825.41;2085140;28;20037;-54
2023/08/16 01:26:59;;;;;;;2.22;2.03;;;;;;;29.35;48.30;98820.50;2082506;28;20106;-55
2023/08/16 01:28:00;;;;;;;2.92;2.08;;;;;;;29.34;47.97;98819.69;2082148;28;20052;-54
2023/08/16 01:29:05;;;;;;;2.97;2.10;;;;;;;29.34;48.18;98824.34;2083060;28;20049;-50
2023/08/16 01:30:08;;;;;;;2.60;2.00;;;;;;;29.34;48.17;98819.69;2082833;28;20056;-51
2023/08/16 01:31:09;;;;;;;2.25;2.00;;;;;;;29.33;48.32;98811.75;2082035;28;20045;-51
2023/08/16 01:32:12;;;;;;;2.38;2.00;;;;;;;29.34;48.03;98816.13;2083196;28;20106;-50
2023/08/16 01:33:13;;;;;;;2.45;2.05;;;;;;;29.34;48.24;98814.22;2082070;28;20140;-50
2023/08/16 01:34:15;;;;;;;2.90;1.98;;;;;;;29.35;48.24;98817.75;2083343;28;20052;-53
2023/08/16 01:35:16;;;;;;;2.25;2.05;;;;;;;29.35;48.08;98815.03;2080485;28;20056;-50
2023/08/16 01:36:18;;;;;;;1.92;1.73;;;;;;;29.36;48.02;98816.66;2081449;28;20053;-49
2023/08/16 01:37:20;;;;;;;2.45;2.00;;;;;;;29.35;48.09;98818.56;2083356;28;20060;-54
2023/08/16 01:38:22;;;;;;;3.25;2.05;;;;;;;29.35;48.13;98815.03;2083190;28;20064;-49
2023/08/16 01:39:22;;;;;;;2.30;2.10;;;;;;;29.35;48.13;98823.22;2083406;28;20080;-51
2023/08/16 01:40:24;;;;;;;2.08;1.67;;;;;;;29.33;48.15;98823.47;2082063;28;20338;-51
2023/08/16 01:41:32;;;;;;;2.17;1.98;;;;;;;29.37;48.09;98829.25;2082360;28;20102;-54
2023/08/16 01:42:40;;;;;;;2.05;1.92;;;;;;;29.37;48.17;98826.53;2081650;28;20538;-50
2023/08/16 01:43:44;;;;;;;3.28;2.33;;;;;;;29.35;48.08;98823.22;2082363;28;20045;-50
2023/08/16 01:44:49;;;;;;;2.17;1.88;;;;;;;29.35;47.93;98820.50;2082872;28;20555;-54
2023/08/16 01:45:53;;;;;;;2.67;2.22;;;;;;;29.34;48.02;98821.59;2081649;28;20438;-53
2023/08/16 01:46:56;;;;;;;3.55;1.63;;;;;;;29.32;47.89;98819.13;2080375;28;20048;-53
2023/08/16 01:47:59;;;;;;;3.17;1.90;;;;;;;29.34;48.04;98822.41;2080413;28;20499;-52
2023/08/16 01:49:01;;;;;;;2.42;2.22;;;;;;;29.34;48.15;98827.06;2081562;28;20076;-50
2023/08/16 01:50:04;;;;;;;1.77;1.67;;;;;;;29.31;48.26;98825.69;2083858;28;20045;-54
2023/08/16 01:51:05;;;;;;;2.20;1.85;;;;;;;29.34;47.96;98822.41;2083703;28;20093;-53
2023/08/16 01:52:07;;;;;;;2.80;2.30;;;;;;;29.34;48.19;98818.88;2080987;28;20064;-54
2023/08/16 01:53:08;;;;;;;2.20;1.70;;;;;;;29.32;48.23;98819.13;2082830;28;20088;-50
2023/08/16 01:54:11;;;;;;;2.35;1.75;;;;;;;29.33;48.12;98819.94;2082019;28;20055;-50
2023/08/16 01:55:12;;;;;;;2.00;1.80;;;;;;;29.32;48.19;98818.31;2079623;28;20148;-49
2023/08/16 01:56:14;;;;;;;2.53;2.33;;;;;;;29.34;48.19;98816.94;2083064;28;20331;-50
2023/08/16 01:57:15;;;;;;;1.75;1.65;;;;;;;29.33;48.19;98811.75;2084098;28;20053;-52
2023/08/16 01:58:18;;;;;;;2.00;1.77;;;;;;;29.34;48.21;98825.16;2082739;28;20037;-54
2023/08/16 01:59:19;;;;;;;2.08;1.88;;;;;;;29.32;48.13;98816.38;2083692;28;20073;-49
2023/08/16 02:00:21;;;;;;;2.88;2.20;;;;;;;29.33;48.19;98819.94;2081402;28;20041;-50
2023/08/16 02:01:22;;;;;;;1.95;1.80;;;;;;;29.33;48.09;98811.75;2081601;28;20063;-50
2023/08/16 02:02:24;;;;;;;2.58;1.98;;;;;;;29.34;48.08;98822.41;2081603;28;20059;-52
2023/08/16 02:03:24;;;;;;;2.38;1.88;;;;;;;29.35;48.07;98818.56;2082702;28;21465;-50
2023/08/16 02:04:26;;;;;;;2.53;2.08;;;;;;;29.35;48.10;98823.22;2081294;28;20746;-53
2023/08/16 02:05:27;;;;;;;2.08;1.83;;;;;;;29.33;48.01;98814.47;2082725;28;20053;-50
2023/08/16 02:06:29;;;;;;;2.47;1.90;;;;;;;29.34;48.01;98821.59;2080655;28;20508;-53
2023/08/16 02:07:30;;;;;;;2.33;2.08;;;;;;;29.31;48.30;98817.50;2082610;28;20041;-49
2023/08/16 02:08:31;;;;;;;2.50;2.03;;;;;;;29.32;48.30;98810.94;2082631;28;20124;-50
2023/08/16 02:09:33;;;;;;;2.60;2.33;;;;;;;29.31;48.25;98813.91;2073493;28;20046;-52
2023/08/16 02:10:33;;;;;;;2.40;2.20;;;;;;;29.31;48.19;98811.19;2074731;28;20056;-52
2023/08/16 02:11:35;;;;;;;2.45;1.85;;;;;;;29.31;48.10;98812.03;2075086;28;20436;-50
2023/08/16 02:12:36;;;;;;;2.10;1.90;;;;;;;29.32;48.13;98807.38;2074687;28;20531;-50
2023/08/16 02:13:39;;;;;;;2.53;2.10;;;;;;;29.33;48.23;98817.19;2074277;28;20045;-53
2023/08/16 02:14:40;;;;;;;2.28;2.05;;;;;;;29.30;48.36;98809.56;2075172;28;20081;-49
2023/08/16 02:15:42;;;;;;;2.00;1.60;;;;;;;29.31;48.21;98805.72;2073696;28;20042;-51
2023/08/16 02:16:43;;;;;;;2.38;2.17;;;;;;;29.31;48.28;98811.19;2074627;28;20064;-54
2023/08/16 02:17:44;;;;;;;2.05;1.90;;;;;;;29.31;47.87;98816.66;2082766;28;20514;-51
2023/08/16 02:18:45;;;;;;;1.98;1.70;;;;;;;29.31;47.92;98822.09;2082840;28;20195;-51
2023/08/16 02:19:48;;;;;;;1.70;1.60;;;;;;;29.32;48.11;98812.84;2080367;28;20061;-51
2023/08/16 02:20:52;;;;;;;1.90;1.70;;;;;;;29.32;48.19;98819.13;2074841;28;20060;-50
2023/08/16 02:21:54;;;;;;;1.70;1.60;;;;;;;29.30;48.15;98815.00;2072420;28;20048;-54
2023/08/16 02:22:55;;;;;;;3.38;1.70;;;;;;;29.31;47.96;98817.50;2073418;28;20664;-54
2023/08/16 02:23:57;;;;;;;2.22;2.03;;;;;;;29.30;48.14;98820.47;2072697;28;20065;-54
2023/08/16 02:24:58;;;;;;;2.13;1.92;;;;;;;29.31;48.14;98816.66;2072506;28;20049;-49
2023/08/16 02:26:00;;;;;;;2.80;2.03;;;;;;;29.32;47.86;98819.13;2074887;28;20068;-52
2023/08/16 02:27:01;;;;;;;1.90;1.63;;;;;;;29.33;48.10;98818.03;2074661;28;20057;-51
2023/08/16 02:28:02;;;;;;;2.00;1.80;;;;;;;29.33;48.04;98819.94;2076144;28;20056;-52
2023/08/16 02:29:05;;;;;;;3.20;2.10;;;;;;;29.31;48.32;98822.97;2074173;28;20046;-50
2023/08/16 02:30:07;;;;;;;3.17;2.10;;;;;;;29.32;48.13;98818.31;2074112;28;20041;-51
2023/08/16 02:31:09;;;;;;;1.75;1.65;;;;;;;29.30;48.10;98824.03;2073917;28;20049;-51
2023/08/16 02:32:10;;;;;;;2.13;1.95;;;;;;;29.31;48.04;98817.50;2075247;28;20037;-53
2023/08/16 02:33:12;;;;;;;1.80;1.65;;;;;;;29.33;48.17;98819.94;2075382;28;20057;-53
2023/08/16 02:34:13;;;;;;;3.25;2.53;;;;;;;29.32;48.02;98823.78;2074684;28;20543;-52
2023/08/16 02:35:14;;;;;;;1.67;1.58;;;;;;;29.30;48.16;98818.56;2073034;28;20053;-50
2023/08/16 02:36:15;;;;;;;1.95;1.73;;;;;;;29.31;48.12;98822.09;2070794;28;20050;-51
2023/08/16 02:37:18;;;;;;;2.67;1.98;;;;;;;29.32;47.97;98821.03;2071878;28;21082;-52
2023/08/16 02:38:19;;;;;;;2.55;2.10;;;;;;;29.29;48.19;98814.19;2072070;28;20049;-49
2023/08/16 02:39:22;;;;;;;2.03;1.85;;;;;;;29.30;47.85;98820.47;2074333;28;20096;-52
2023/08/16 02:40:23;;;;;;;2.17;1.75;;;;;;;29.30;48.05;98815.84;2074484;28;20050;-52
2023/08/16 02:41:25;;;;;;;2.25;1.98;;;;;;;29.31;48.02;98811.19;2080939;28;20071;-53
2023/08/16 02:42:26;;;;;;;2.72;1.90;;;;;;;29.30;48.05;98813.09;2076370;28;20128;-53
2023/08/16 02:43:26;;;;;;;2.50;2.30;;;;;;;29.29;48.12;98810.66;2080108;28;20384;-52
2023/08/16 02:44:30;;;;;;;2.75;2.15;;;;;;;29.29;47.96;98813.38;2083196;28;20045;-53
2023/08/16 02:45:31;;;;;;;3.42;1.95;;;;;;;29.29;48.06;98813.38;2083585;28;20048;-51
2023/08/16 02:46:31;;;;;;;2.33;2.13;;;;;;;29.30;48.02;98820.47;2084316;28;20479;-49
2023/08/16 02:47:33;;;;;;;2.13;2.00;;;;;;;29.29;48.06;98813.38;2082871;28;20063;-52
2023/08/16 02:48:34;;;;;;;3.47;1.85;;;;;;;29.29;48.07;98814.19;2081502;28;20140;-50
2023/08/16 02:49:36;;;;;;;4.13;2.30;;;;;;;29.30;48.06;98813.09;2081874;28;20053;-54
2023/08/16 02:50:37;;;;;;;2.00;1.90;;;;;;;29.29;47.98;98816.94;2080174;28;20055;-50
2023/08/16 02:51:39;;;;;;;2.05;1.85;;;;;;;29.29;48.14;98824.31;2082424;28;20053;-51
2023/08/16 02:52:39;;;;;;;2.22;2.03;;;;;;;29.30;48.25;98815.00;2080843;28;20593;-51
2023/08/16 02:53:41;;;;;;;2.88;2.22;;;;;;;29.28;48.10;98818.03;2081518;28;20386;-50
2023/08/16 02:54:42;;;;;;;2.30;1.98;;;;;;;29.30;48.06;98815.84;2081149;28;20766;-50
2023/08/16 02:55:44;;;;;;;2.45;1.85;;;;;;;29.28;47.99;98815.31;2082388;28;20091;-53
2023/08/16 02:56:45;;;;;;;2.92;1.83;;;;;;;29.29;48.30;98810.66;2081620;28;20519;-53
2023/08/16 02:57:47;;;;;;;2.83;1.90;;;;;;;29.29;48.00;98816.13;2082226;28;20049;-50
2023/08/16 02:58:47;;;;;;;1.52;1.42;;;;;;;29.29;48.08;98813.38;2082301;28;20187;-51
2023/08/16 02:59:51;;;;;;;2.67;2.13;;;;;;;29.28;48.14;98806.25;2081682;28;20220;-50
2023/08/16 03:00:53;;;;;;;1.73;1.63;;;;;;;29.29;48.12;98813.38;2083398;28;20042;-53
2023/08/16 03:01:55;;;;;;;2.38;1.80;;;;;;;29.27;48.06;98812.81;2082910;28;20057;-52
2023/08/16 03:02:57;;;;;;;2.42;1.90;;;;;;;29.28;48.11;98811.72;2082362;28;20442;-53
2023/08/16 03:03:59;;;;;;;1.92;1.83;;;;;;;29.27;48.01;98816.38;2081395;28;21045;-53
2023/08/16 03:04:59;;;;;;;2.03;1.80;;;;;;;29.27;48.16;98812.81;2081406;28;20307;-51
2023/08/16 03:06:01;;;;;;;3.20;2.17;;;;;;;29.28;48.33;98809.84;2081115;28;20067;-53
2023/08/16 03:07:03;;;;;;;3.10;1.90;;;;;;;29.29;47.98;98816.13;2082245;28;20041;-50
2023/08/16 03:08:05;;;;;;;2.22;1.92;;;;;;;29.28;48.29;98817.19;2081083;28;20037;-53
2023/08/16 03:09:06;;;;;;;2.10;1.92;;;;;;;29.27;48.06;98815.56;2080391;28;20503;-53
2023/08/16 03:10:09;;;;;;;2.28;2.08;;;;;;;29.28;48.12;98811.72;2082290;28;20041;-49
2023/08/16 03:11:11;;;;;;;2.58;2.10;;;;;;;29.26;48.23;98813.94;2080487;28;20037;-50
2023/08/16 03:12:13;;;;;;;2.10;1.90;;;;;;;29.27;47.98;98810.09;2083229;28;20560;-52
2023/08/16 03:13:14;;;;;;;1.73;1.63;;;;;;;29.26;48.17;98805.72;2082336;28;20098;-53
2023/08/16 03:14:15;;;;;;;2.03;1.70;;;;;;;29.25;48.02;98813.09;2081644;28;20919;-50
2023/08/16 03:15:18;;;;;;;2.10;1.90;;;;;;;29.27;48.01;98815.56;2083906;28;20507;-50
2023/08/16 03:16:20;;;;;;;2.25;2.00;;;;;;;29.26;48.26;98813.94;2082002;28;20046;-54
2023/08/16 03:17:20;;;;;;;1.92;1.83;;;;;;;29.25;48.01;98812.28;2081720;28;20053;-53
2023/08/16 03:18:21;;;;;;;2.58;2.10;;;;;;;29.25;48.15;98815.00;2081260;28;20512;-49
2023/08/16 03:19:23;;;;;;;2.72;1.90;;;;;;;29.25;48.21;98817.72;2082909;28;20037;-54
2023/08/16 03:20:24;;;;;;;1.90;1.75;;;;;;;29.25;48.13;98818.53;2083224;28;20307;-53
2023/08/16 03:21:26;;;;;;;1.80;1.70;;;;;;;29.24;48.15;98816.91;2080660;28;20053;-50
2023/08/16 03:22:26;;;;;;;2.03;1.85;;;;;;;29.25;48.22;98813.09;2080831;28;20136;-53
2023/08/16 03:23:28;;;;;;;2.13;1.65;;;;;;;29.24;48.07;98811.44;2080531;28;20060;-52
2023/08/16 03:24:29;;;;;;;1.50;1.35;;;;;;;29.25;48.14;98817.72;2082173;28;20045;-54
2023/08/16 03:25:31;;;;;;;2.22;2.03;;;;;;;29.24;48.21;98810.63;2082441;28;20537;-49
2023/08/16 03:26:32;;;;;;;2.00;1.88;;;;;;;29.24;47.87;98813.38;2081534;28;20052;-49
2023/08/16 03:27:34;;;;;;;2.60;1.90;;;;;;;29.25;47.96;98813.09;2080069;28;20064;-52
2023/08/16 03:28:34;;;;;;;2.22;1.73;;;;;;;29.25;48.14;98813.09;2083313;28;20487;-51
2023/08/16 03:29:35;;;;;;;2.60;2.40;;;;;;;29.24;47.97;98816.09;2080799;28;20044;-49
2023/08/16 03:30:39;;;;;;;1.45;1.35;;;;;;;29.24;48.08;98816.91;2083526;28;20120;-50
2023/08/16 03:31:39;;;;;;;2.20;2.00;;;;;;;29.24;47.96;98813.38;2081846;28;20131;-51
2023/08/16 03:32:40;;;;;;;1.95;1.80;;;;;;;29.23;48.45;98815.28;2082550;28;20786;-50
2023/08/16 03:33:42;;;;;;;5.05;2.00;;;;;;;29.23;48.26;98812.56;2081790;28;21343;-50
2023/08/16 03:34:43;;;;;;;2.28;2.08;;;;;;;29.23;48.27;98811.75;2082090;28;20053;-52
2023/08/16 03:35:45;;;;;;;2.60;2.03;;;;;;;29.23;48.05;98809.00;2079198;28;20419;-53
2023/08/16 03:36:45;;;;;;;3.35;1.95;;;;;;;29.22;48.20;98812.81;2080922;28;20068;-50
2023/08/16 03:37:47;;;;;;;2.88;1.48;;;;;;;29.21;47.98;98814.72;2080955;28;20048;-50
2023/08/16 03:38:48;;;;;;;2.17;1.85;;;;;;;29.22;48.13;98810.09;2080026;28;20139;-50
2023/08/16 03:39:52;;;;;;;2.45;1.83;;;;;;;29.22;48.20;98815.53;2081818;28;20045;-52
2023/08/16 03:40:53;;;;;;;1.95;1.75;;;;;;;29.23;48.16;98817.19;2081102;28;20139;-50
2023/08/16 03:41:55;;;;;;;2.17;1.98;;;;;;;29.22;48.17;98821.00;2080679;28;20087;-52
2023/08/16 03:42:56;;;;;;;3.03;2.08;;;;;;;29.21;48.09;98813.91;2081037;28;20045;-52
2023/08/16 03:43:58;;;;;;;2.33;1.77;;;;;;;29.21;48.20;98811.19;2080540;28;20041;-54
2023/08/16 03:44:59;;;;;;;2.80;2.10;;;;;;;29.21;48.24;98817.47;2082555;28;20048;-49
2023/08/16 03:46:02;;;;;;;2.28;2.08;;;;;;;29.22;48.11;98818.28;2081224;28;20139;-51
2023/08/16 03:47:04;;;;;;;2.35;2.00;;;;;;;29.20;48.19;98818.56;2083973;28;20041;-49
2023/08/16 03:48:06;;;;;;;2.47;2.15;;;;;;;29.21;48.16;98816.66;2082856;28;20052;-51
2023/08/16 03:49:07;;;;;;;1.73;1.63;;;;;;;29.21;48.02;98819.38;2082276;28;20069;-49
2023/08/16 03:50:09;;;;;;;1.75;1.65;;;;;;;29.22;48.04;98821.00;2082450;28;20052;-54
2023/08/16 03:51:10;;;;;;;2.15;1.95;;;;;;;29.20;48.13;98818.56;2080175;28;20084;-50
2023/08/16 03:52:12;;;;;;;1.98;1.80;;;;;;;29.21;48.13;98822.09;2081579;28;20518;-49
2023/08/16 03:53:13;;;;;;;2.28;2.03;;;;;;;29.21;48.11;98817.47;2082362;28;20045;-50
2023/08/16 03:54:15;;;;;;;2.53;1.95;;;;;;;29.20;48.14;98815.81;2081478;28;20060;-53
2023/08/16 03:55:15;;;;;;;2.03;1.80;;;;;;;29.22;48.04;98818.28;2079591;28;20056;-51
2023/08/16 03:56:17;;;;;;;1.83;1.73;;;;;;;29.22;48.10;98823.72;2080445;28;20036;-51
2023/08/16 03:57:18;;;;;;;2.35;2.08;;;;;;;29.21;48.04;98820.19;2081501;28;20103;-50
2023/08/16 03:58:20;;;;;;;2.75;1.95;;;;;;;29.21;48.13;98824.84;2082969;28;20053;-54
2023/08/16 03:59:21;;;;;;;2.15;1.92;;;;;;;29.21;48.21;98822.09;2083035;28;20041;-49
2023/08/16 04:00:23;;;;;;;1.85;1.75;;;;;;;29.20;48.07;98825.91;2080862;28;20423;-52
2023/08/16 04:01:25;;;;;;;2.47;2.25;;;;;;;29.20;48.18;98825.91;2078649;28;20049;-52
2023/08/16 04:02:27;;;;;;;2.88;2.00;;;;;;;29.20;48.27;98829.47;2080841;28;20084;-54
2023/08/16 04:03:28;;;;;;;1.90;1.80;;;;;;;29.20;48.09;98825.91;2080287;28;20127;-50
2023/08/16 04:04:30;;;;;;;1.90;1.70;;;;;;;29.18;48.19;98818.81;2081205;28;20059;-51
2023/08/16 04:05:31;;;;;;;3.03;2.13;;;;;;;29.18;48.14;98824.28;2082033;28;20041;-56
2023/08/16 04:06:32;;;;;;;2.33;1.80;;;;;;;29.20;48.16;98828.63;2083407;28;20045;-52
2023/08/16 04:07:33;;;;;;;2.95;1.88;;;;;;;29.20;48.12;98826.75;2081027;28;20518;-59
2023/08/16 04:08:35;;;;;;;2.08;1.98;;;;;;;29.19;48.19;98825.09;2081601;28;20048;-54
2023/08/16 04:09:36;;;;;;;1.75;1.60;;;;;;;29.20;48.16;98832.22;2081592;28;20141;-50
2023/08/16 04:10:38;;;;;;;2.10;1.90;;;;;;;29.17;48.05;98822.66;2079111;28;20042;-53
2023/08/16 04:11:38;;;;;;;2.00;1.90;;;;;;;29.20;48.11;98825.91;2081138;28;20298;-55
2023/08/16 04:12:40;;;;;;;2.08;1.92;;;;;;;29.20;48.06;98828.63;2084124;28;20045;-49
2023/08/16 04:13:41;;;;;;;2.08;1.90;;;;;;;29.20;48.21;98823.19;2082205;28;20518;-52
2023/08/16 04:14:43;;;;;;;2.20;2.00;;;;;;;29.19;48.17;98822.34;2081412;28;20048;-53
2023/08/16 04:15:43;;;;;;;1.80;1.70;;;;;;;29.18;48.06;98824.28;2082102;28;20073;-51
2023/08/16 04:16:47;;;;;;;3.00;2.20;;;;;;;29.20;47.98;98834.09;2079605;28;20060;-52
2023/08/16 04:17:48;;;;;;;2.13;1.92;;;;;;;29.17;48.07;98825.38;2075054;28;20046;-54
2023/08/16 04:18:53;;;;;;;2.30;2.17;;;;;;;29.19;48.03;98827.81;2080335;28;20067;-50
2023/08/16 04:19:54;;;;;;;2.13;1.98;;;;;;;29.19;47.83;98833.28;2080619;28;20056;-52
2023/08/16 04:20:56;;;;;;;2.33;2.13;;;;;;;29.18;47.96;98828.94;2083883;28;20045;-52
2023/08/16 04:21:57;;;;;;;1.90;1.80;;;;;;;29.18;47.95;98835.19;2082898;28;20045;-51
2023/08/16 04:23:00;;;;;;;3.75;2.10;;;;;;;29.17;47.92;98839.03;2081919;28;20100;-51
2023/08/16 04:24:01;;;;;;;2.17;1.80;;;;;;;29.17;48.07;98847.22;2081808;28;20037;-49
2023/08/16 04:25:03;;;;;;;2.15;1.95;;;;;;;29.18;48.26;98848.84;2081930;28;20047;-52
2023/08/16 04:26:04;;;;;;;2.10;1.90;;;;;;;29.18;48.08;98846.13;2080818;28;20087;-50
2023/08/16 04:27:07;;;;;;;2.53;2.33;;;;;;;29.18;48.22;98839.84;2082667;28;20044;-54
2023/08/16 04:28:08;;;;;;;3.22;2.00;;;;;;;29.18;48.08;98837.13;2081474;28;20037;-52
2023/08/16 04:29:10;;;;;;;2.10;1.88;;;;;;;29.18;48.21;98843.41;2083385;28;20471;-52
2023/08/16 04:30:13;;;;;;;2.20;1.73;;;;;;;29.17;48.07;98843.69;2081323;28;20416;-50
2023/08/16 04:31:15;;;;;;;2.13;1.90;;;;;;;29.18;48.00;98845.31;2081002;28;20052;-53
2023/08/16 04:32:17;;;;;;;2.30;2.10;;;;;;;29.20;48.11;98847.75;2081269;28;20049;-54
2023/08/16 04:33:19;;;;;;;2.00;1.77;;;;;;;29.17;47.77;98849.97;2082464;28;20049;-53
2023/08/16 04:34:20;;;;;;;2.17;1.73;;;;;;;29.17;47.93;98849.97;2079861;28;20448;-55
2023/08/16 04:35:22;;;;;;;2.88;2.03;;;;;;;29.18;48.26;98846.13;2079831;28;20064;-54
2023/08/16 04:36:23;;;;;;;2.90;2.20;;;;;;;29.18;48.17;98850.78;2077409;28;20068;-53
2023/08/16 04:37:24;;;;;;;1.70;1.60;;;;;;;29.17;48.19;98849.16;2081238;28;20059;-56
2023/08/16 04:38:25;;;;;;;2.20;2.00;;;;;;;29.17;47.93;98849.97;2082412;28;20041;-54
2023/08/16 04:39:27;;;;;;;2.38;2.10;;;;;;;29.17;48.13;98846.41;2082736;28;20057;-57
2023/08/16 04:40:28;;;;;;;2.03;1.92;;;;;;;29.17;48.04;98844.50;2081896;28;20625;-56
2023/08/16 04:41:30;;;;;;;1.55;1.45;;;;;;;29.17;48.04;98849.16;2081345;28;20060;-52
2023/08/16 04:42:34;;;;;;;2.15;1.90;;;;;;;29.17;47.98;98847.22;2080372;28;20080;-53
2023/08/16 04:43:36;;;;;;;2.47;2.15;;;;;;;29.16;48.06;98848.31;2081900;28;20037;-57
2023/08/16 04:44:37;;;;;;;2.08;1.88;;;;;;;29.16;48.07;98848.31;2081804;28;20296;-51
2023/08/16 04:45:38;;;;;;;3.17;2.25;;;;;;;29.17;48.01;98841.78;2082817;28;20418;-52
2023/08/16 04:46:39;;;;;;;2.13;1.92;;;;;;;29.17;47.87;98840.94;2082548;28;20076;-56
2023/08/16 04:47:42;;;;;;;2.20;1.95;;;;;;;29.16;47.83;98845.56;2081626;28;20052;-56
2023/08/16 04:48:43;;;;;;;2.35;2.00;;;;;;;29.15;48.20;98841.22;2082174;28;20150;-56
2023/08/16 04:49:45;;;;;;;2.00;1.90;;;;;;;29.15;48.04;98846.66;2082482;28;20106;-53
2023/08/16 04:50:46;;;;;;;1.98;1.85;;;;;;;29.15;47.98;98846.66;2082333;28;20056;-52
2023/08/16 04:51:48;;;;;;;2.15;1.95;;;;;;;29.15;48.09;98840.38;2082858;28;20053;-56
2023/08/16 04:52:49;;;;;;;2.92;2.10;;;;;;;29.14;48.02;98839.56;2081814;28;20055;-53